aviador You're here:

EBCV Decoded Metar

CHIEVRES in BELGIUM
Report Time2018-01-17 04:55:00
UTC Time2018-01-17 05:15:44
Flight Rules vfr VFR
Wind260° at 13 kt
W.Decomp.*RWY 26: 13.0 kt HW 0.2 kt LCW
W.Rank260° ranks 9
Current wind is above 260° avg. (8.1)
Visibility9999 m
Phenomena:N/A
Clouds:Broken 034 Hf
Expected CloudBase > 2,000 ft AGL from Temp-Dew spread
Ceiling3,400 ft
Temp03°C (ISA -12)
Dew Point-2°C (70% RH)
AAT-3.9°C
QNH0999 hPa
Density Alt-646 ft
Elevation207 ft
Report Wrong Elevation
Raw Report
EBCV 170455Z AUTO 26013KT 9999 BKN034/// 03/M02 Q0999 BLU=

Extra information for EBCV:More info

Metar Taf Metar & Taf Last 4 Metars F.Rules Stats Wind Profile Meteogram Temp Stats Airport Information Weather charts Add Link Nearby VenuesMetar ALERT Operation Metar Decoded Social comments